Time;durP1;ratioP1;P1;durP2;ratioP2;P2;SDS_P1;SDS_P2;PMS_P1;PMS_P2;Temp;Humidity;BMP_temperature;BMP_pressure;BME280_temperature;BME280_humidity;BME280_pressure;Samples;Min_cycle;Max_cycle;Signal;HPM_P1;HPM_P2
2023/10/30 00:02:30;;;;;;;8.52;1.00;;;11.10;99.90;;;;;;7340608;32;20115;-55
2023/10/30 00:06:33;;;;;;;5.30;1.17;;;11.10;99.90;;;;;;7341957;32;20111;-55
2023/10/30 00:10:36;;;;;;;9.98;1.17;;;11.10;99.90;;;;;;7347626;32;20129;-57
2023/10/30 00:14:37;;;;;;;5.53;1.10;;;11.20;99.90;;;;;;7349736;32;20325;-55
2023/10/30 00:18:41;;;;;;;4.60;0.90;;;11.30;99.90;;;;;;7346782;32;20189;-55
2023/10/30 00:22:43;;;;;;;6.72;1.25;;;11.30;99.90;;;;;;7336990;32;20493;-55
2023/10/30 00:26:45;;;;;;;7.80;1.10;;;11.30;99.90;;;;;;7352161;32;20178;-55
2023/10/30 00:30:47;;;;;;;7.10;0.90;;;11.30;99.90;;;;;;7342144;32;20149;-54
2023/10/30 00:34:49;;;;;;;6.87;1.02;;;11.30;99.90;;;;;;7326619;32;20202;-55
2023/10/30 00:38:51;;;;;;;4.47;0.80;;;11.40;99.90;;;;;;7327255;32;20181;-55
2023/10/30 00:42:53;;;;;;;8.00;1.60;;;11.40;99.90;;;;;;7345728;32;20134;-56
2023/10/30 00:46:54;;;;;;;6.12;0.82;;;11.30;99.90;;;;;;7342139;32;20194;-56
2023/10/30 00:50:56;;;;;;;7.22;1.37;;;11.30;99.90;;;;;;7346882;32;20246;-55
2023/10/30 00:54:58;;;;;;;4.47;0.90;;;11.30;99.90;;;;;;7349216;32;20111;-55
2023/10/30 00:59:00;;;;;;;4.85;0.98;;;11.30;99.90;;;;;;7337713;32;20368;-54
2023/10/30 01:03:02;;;;;;;5.65;1.12;;;11.30;99.90;;;;;;7325033;32;20131;-54
2023/10/30 01:07:04;;;;;;;5.15;1.25;;;11.40;99.90;;;;;;7341907;32;20767;-55
2023/10/30 01:11:06;;;;;;;8.27;1.15;;;11.40;99.90;;;;;;7342889;32;20423;-54
2023/10/30 01:15:08;;;;;;;9.85;1.20;;;11.50;99.90;;;;;;7347215;32;20107;-55
2023/10/30 01:19:10;;;;;;;6.07;1.20;;;11.50;99.90;;;;;;7345369;32;20627;-55
2023/10/30 01:23:11;;;;;;;7.05;1.25;;;11.60;99.90;;;;;;7346836;32;20249;-56
2023/10/30 01:27:13;;;;;;;5.78;0.90;;;11.60;99.90;;;;;;7336098;32;20111;-54
2023/10/30 01:31:15;;;;;;;7.43;1.20;;;11.50;99.90;;;;;;7337034;32;20498;-54
2023/10/30 01:35:17;;;;;;;6.62;1.70;;;11.50;99.90;;;;;;7343776;32;20720;-55
2023/10/30 01:39:19;;;;;;;7.97;1.37;;;11.60;99.90;;;;;;7343011;32;20107;-54
2023/10/30 01:43:32;;;;;;;9.70;1.10;;;11.50;99.90;;;;;;7338605;32;20140;-55
2023/10/30 01:47:33;;;;;;;6.03;1.23;;;11.50;99.90;;;;;;7333350;32;20580;-55
2023/10/30 01:51:36;;;;;;;6.60;1.20;;;11.50;99.90;;;;;;7342509;32;20552;-54
2023/10/30 01:55:39;;;;;;;7.53;1.10;;;11.40;99.90;;;;;;7337595;32;20442;-55
2023/10/30 01:59:42;;;;;;;7.78;0.95;;;11.40;99.90;;;;;;7333443;32;20128;-55
2023/10/30 02:03:44;;;;;;;5.05;1.87;;;11.30;99.90;;;;;;7345405;32;20556;-56
2023/10/30 02:07:46;;;;;;;9.27;0.95;;;11.30;99.90;;;;;;7351929;32;20110;-56
2023/10/30 02:11:48;;;;;;;7.45;1.20;;;11.20;99.90;;;;;;7354002;32;20137;-54
2023/10/30 02:15:49;;;;;;;10.15;1.50;;;11.20;99.90;;;;;;7344911;32;20667;-55
2023/10/30 02:19:51;;;;;;;11.02;1.35;;;11.20;99.90;;;;;;7350730;32;20142;-56
2023/10/30 02:23:54;;;;;;;6.55;1.42;;;11.20;99.90;;;;;;7353090;32;20563;-56
2023/10/30 02:27:56;;;;;;;4.97;1.00;;;11.20;99.90;;;;;;7351857;32;20206;-56
2023/10/30 02:31:58;;;;;;;7.57;1.20;;;11.30;99.90;;;;;;7346607;32;20099;-55
2023/10/30 02:36:00;;;;;;;5.37;1.30;;;11.20;99.90;;;;;;7347295;32;20206;-55
2023/10/30 02:40:02;;;;;;;7.37;1.30;;;11.20;99.90;;;;;;7348078;32;20277;-57
2023/10/30 02:44:04;;;;;;;10.88;1.27;;;11.20;99.90;;;;;;7346686;32;20193;-56
2023/10/30 02:48:06;;;;;;;7.72;1.10;;;11.20;99.90;;;;;;7350756;32;20095;-55
2023/10/30 02:52:07;;;;;;;6.70;1.10;;;11.20;99.90;;;;;;7347127;32;20127;-55
2023/10/30 02:56:10;;;;;;;8.82;1.10;;;11.20;99.90;;;;;;7361676;32;20103;-55
2023/10/30 03:00:12;;;;;;;3.92;0.82;;;11.10;99.90;;;;;;7355829;32;20130;-57
2023/10/30 03:04:16;;;;;;;7.20;1.20;;;11.20;99.90;;;;;;7343432;32;20215;-55
2023/10/30 03:08:18;;;;;;;8.23;1.17;;;11.20;99.90;;;;;;7349675;32;20481;-56
2023/10/30 03:12:20;;;;;;;7.15;0.98;;;11.20;99.90;;;;;;7349870;32;20215;-55
2023/10/30 03:16:22;;;;;;;11.80;1.23;;;11.20;99.90;;;;;;7347605;32;20430;-55
2023/10/30 03:20:24;;;;;;;6.40;1.23;;;11.10;99.90;;;;;;7328995;32;20584;-55
2023/10/30 03:24:26;;;;;;;5.12;1.02;;;11.10;99.90;;;;;;7350087;32;20096;-55
2023/10/30 03:28:28;;;;;;;10.57;1.37;;;11.10;99.90;;;;;;7350480;32;20289;-55
2023/10/30 03:32:30;;;;;;;9.48;1.23;;;11.10;99.90;;;;;;7341042;32;20099;-55
2023/10/30 03:36:32;;;;;;;7.37;1.30;;;11.20;99.90;;;;;;7345206;32;20104;-56
2023/10/30 03:40:34;;;;;;;7.62;1.17;;;11.20;99.90;;;;;;7336278;32;20560;-54
2023/10/30 03:44:36;;;;;;;8.88;1.27;;;11.20;99.90;;;;;;7342920;32;20108;-55
2023/10/30 03:48:38;;;;;;;8.35;1.20;;;11.10;99.90;;;;;;7343417;32;20133;-55
2023/10/30 03:52:40;;;;;;;8.07;1.17;;;11.00;99.90;;;;;;7341311;32;20187;-56
2023/10/30 03:56:43;;;;;;;9.48;1.30;;;11.00;99.90;;;;;;7347710;32;20175;-56
2023/10/30 04:00:45;;;;;;;10.50;1.80;;;11.00;99.90;;;;;;7344746;32;20123;-56
2023/10/30 04:04:46;;;;;;;5.00;1.20;;;11.00;99.90;;;;;;7345086;32;20111;-56
2023/10/30 04:08:48;;;;;;;8.52;1.42;;;11.00;99.90;;;;;;7344880;32;20107;-56
2023/10/30 04:12:50;;;;;;;6.43;1.00;;;10.90;99.90;;;;;;7341567;32;20214;-55
2023/10/30 04:16:52;;;;;;;9.98;1.27;;;10.90;99.90;;;;;;7334940;32;20143;-55
2023/10/30 04:20:55;;;;;;;7.22;1.17;;;10.90;99.90;;;;;;7351177;32;20414;-55
2023/10/30 04:24:57;;;;;;;6.47;1.27;;;10.80;99.90;;;;;;7351908;32;20623;-55
2023/10/30 04:28:59;;;;;;;7.47;1.98;;;10.80;99.90;;;;;;7347948;32;20490;-54
2023/10/30 04:33:01;;;;;;;11.05;1.77;;;10.80;99.90;;;;;;7337533;32;20209;-55
2023/10/30 04:37:03;;;;;;;5.68;1.15;;;10.80;99.90;;;;;;7347444;32;20547;-55
2023/10/30 04:41:05;;;;;;;4.75;1.17;;;10.90;99.90;;;;;;7344016;32;20107;-55
2023/10/30 04:45:07;;;;;;;7.93;1.20;;;10.80;99.90;;;;;;7346034;32;20335;-55
2023/10/30 04:49:09;;;;;;;7.75;1.70;;;10.80;99.90;;;;;;7345894;32;20133;-55
2023/10/30 04:53:11;;;;;;;5.22;1.37;;;10.90;99.90;;;;;;7339274;32;20219;-55
2023/10/30 04:57:13;;;;;;;8.60;1.08;;;10.80;99.90;;;;;;7343375;32;20136;-55
2023/10/30 05:01:15;;;;;;;5.20;1.00;;;10.80;99.90;;;;;;7345930;32;20111;-55
2023/10/30 05:05:16;;;;;;;6.82;1.15;;;10.80;99.90;;;;;;7329122;32;20154;-55
2023/10/30 05:09:18;;;;;;;8.30;1.23;;;10.70;99.90;;;;;;7342829;32;20111;-54
2023/10/30 05:13:20;;;;;;;7.57;1.95;;;10.70;99.90;;;;;;7349500;32;20111;-55
2023/10/30 05:17:22;;;;;;;11.20;1.65;;;10.70;99.90;;;;;;7347047;32;20112;-55
2023/10/30 05:21:24;;;;;;;7.47;1.25;;;10.70;99.90;;;;;;7345162;32;20153;-55
2023/10/30 05:25:26;;;;;;;7.60;1.12;;;10.70;99.90;;;;;;7346795;32;20719;-55
2023/10/30 05:29:42;;;;;;;7.57;1.20;;;10.70;99.90;;;;;;7345629;32;20111;-55
2023/10/30 05:33:44;;;;;;;8.35;1.45;;;10.70;99.90;;;;;;7340140;32;20167;-55
2023/10/30 05:37:46;;;;;;;7.60;1.10;;;10.70;99.90;;;;;;7341445;32;20131;-55
2023/10/30 05:41:48;;;;;;;8.05;1.40;;;10.70;99.90;;;;;;7347412;32;20565;-55
2023/10/30 05:45:50;;;;;;;6.30;1.55;;;10.70;99.90;;;;;;7347148;32;20190;-55
2023/10/30 05:49:52;;;;;;;6.87;1.17;;;10.70;99.90;;;;;;7343719;32;20792;-55
2023/10/30 05:53:54;;;;;;;10.63;1.10;;;10.80;99.90;;;;;;7348142;32;21157;-55
2023/10/30 05:57:56;;;;;;;6.28;1.20;;;10.80;99.90;;;;;;7349879;32;20190;-55
2023/10/30 06:01:58;;;;;;;6.25;1.10;;;10.80;99.90;;;;;;7340830;32;20221;-55
2023/10/30 06:06:00;;;;;;;7.87;1.08;;;10.80;99.90;;;;;;7343630;32;20536;-55
2023/10/30 06:10:04;;;;;;;10.65;1.33;;;10.80;99.90;;;;;;7341314;32;20111;-56
2023/10/30 06:14:06;;;;;;;9.63;1.48;;;10.90;99.90;;;;;;7347405;32;20627;-55
2023/10/30 06:18:08;;;;;;;5.18;1.00;;;10.90;99.90;;;;;;7335498;32;20124;-54
2023/10/30 06:22:10;;;;;;;8.77;1.50;;;10.80;99.90;;;;;;7342378;32;20141;-55
2023/10/30 06:26:13;;;;;;;6.00;1.02;;;10.80;99.90;;;;;;7343770;32;20146;-55
2023/10/30 06:30:15;;;;;;;8.57;1.50;;;10.80;99.90;;;;;;7340947;32;20410;-55
2023/10/30 06:34:16;;;;;;;5.78;1.05;;;10.80;99.90;;;;;;7343704;32;20226;-57
2023/10/30 06:38:18;;;;;;;6.45;1.17;;;10.70;99.90;;;;;;7330955;32;20115;-57
2023/10/30 06:42:20;;;;;;;7.37;1.50;;;10.80;99.90;;;;;;7342950;32;20115;-57
2023/10/30 06:46:22;;;;;;;6.35;1.00;;;10.80;99.90;;;;;;7327844;32;20148;-57
2023/10/30 06:50:24;;;;;;;6.97;1.30;;;10.70;99.90;;;;;;7336753;32;20130;-56
2023/10/30 06:54:26;;;;;;;5.28;1.02;;;10.80;99.90;;;;;;7352263;32;20441;-56
2023/10/30 06:58:28;;;;;;;7.00;1.60;;;10.70;99.90;;;;;;7347350;32;20129;-56
2023/10/30 07:02:32;;;;;;;9.38;1.55;;;10.70;99.90;;;;;;7340267;32;20124;-56
2023/10/30 07:06:34;;;;;;;8.40;1.85;;;10.70;99.90;;;;;;7332346;32;20205;-55
2023/10/30 07:10:36;;;;;;;5.80;1.35;;;10.60;99.90;;;;;;7339814;32;20111;-56
2023/10/30 07:14:39;;;;;;;7.80;1.42;;;10.70;99.90;;;;;;7345114;32;20130;-54
2023/10/30 07:18:41;;;;;;;4.97;1.35;;;10.70;99.90;;;;;;7345709;32;20875;-54
2023/10/30 07:22:43;;;;;;;8.38;1.20;;;10.70;99.90;;;;;;7349387;32;20129;-55
2023/10/30 07:26:45;;;;;;;10.52;1.55;;;10.80;99.90;;;;;;7347277;32;20238;-55
2023/10/30 07:30:47;;;;;;;9.60;1.20;;;10.80;99.90;;;;;;7338453;32;20096;-54
2023/10/30 07:34:49;;;;;;;4.12;1.05;;;10.80;99.90;;;;;;7345512;32;20146;-55
2023/10/30 07:38:51;;;;;;;11.73;1.75;;;10.90;99.90;;;;;;7344195;32;20369;-57
2023/10/30 07:42:54;;;;;;;8.20;1.52;;;10.90;99.90;;;;;;7344071;32;20218;-55
2023/10/30 07:46:56;;;;;;;10.05;1.70;;;10.90;99.90;;;;;;7346312;32;20115;-56
2023/10/30 07:51:02;;;;;;;7.03;1.42;;;11.00;99.90;;;;;;7342805;32;20099;-56
2023/10/30 07:55:05;;;;;;;12.13;1.65;;;11.10;99.90;;;;;;7340524;32;20208;-56
2023/10/30 07:59:06;;;;;;;9.45;1.85;;;11.20;99.90;;;;;;7337996;32;20489;-56
2023/10/30 08:03:08;;;;;;;6.93;1.42;;;11.20;99.90;;;;;;7334545;32;20131;-55
2023/10/30 08:07:10;;;;;;;8.32;1.40;;;11.50;99.90;;;;;;7347053;32;20198;-56
2023/10/30 08:11:12;;;;;;;13.57;1.92;;;11.60;99.90;;;;;;7335176;32;20400;-55
2023/10/30 08:15:14;;;;;;;6.68;1.67;;;11.70;99.90;;;;;;7322250;32;20261;-53
2023/10/30 08:19:16;;;;;;;8.68;1.50;;;11.90;99.90;;;;;;7347313;32;20214;-53
2023/10/30 08:23:18;;;;;;;8.93;1.77;;;12.20;99.90;;;;;;7350328;32;20130;-53
2023/10/30 08:27:20;;;;;;;7.70;1.48;;;12.50;99.90;;;;;;7349193;32;20103;-53
2023/10/30 08:31:22;;;;;;;8.20;1.40;;;12.70;99.90;;;;;;7329979;32;20216;-57
2023/10/30 08:35:24;;;;;;;5.53;1.60;;;12.80;99.90;;;;;;7346877;32;20525;-57
2023/10/30 08:39:26;;;;;;;7.10;1.48;;;13.00;99.90;;;;;;7349679;32;20137;-56
2023/10/30 08:43:28;;;;;;;10.80;2.03;;;13.10;99.90;;;;;;7327370;32;20111;-56
2023/10/30 08:47:30;;;;;;;2.72;1.23;;;13.20;99.90;;;;;;7330053;32;20129;-57
2023/10/30 08:51:42;;;;;;;5.28;1.62;;;13.30;99.90;;;;;;7343646;32;20631;-56
2023/10/30 08:55:58;;;;;;;3.40;1.20;;;13.50;99.90;;;;;;7338624;32;20288;-56
2023/10/30 09:00:06;;;;;;;5.85;1.35;;;13.50;99.90;;;;;;7348194;32;20201;-57
2023/10/30 09:04:08;;;;;;;4.93;1.70;;;13.40;99.90;;;;;;7345896;32;20217;-57
2023/10/30 09:08:11;;;;;;;5.05;1.50;;;13.50;99.90;;;;;;7339019;32;20486;-57
2023/10/30 09:12:13;;;;;;;5.43;1.37;;;13.60;99.90;;;;;;7340033;32;20163;-57
2023/10/30 09:16:14;;;;;;;5.00;1.48;;;13.50;99.90;;;;;;7348041;32;20111;-57
2023/10/30 09:20:16;;;;;;;4.20;1.25;;;13.60;99.90;;;;;;7345522;32;20261;-57
2023/10/30 09:24:24;;;;;;;6.28;1.15;;;13.60;99.90;;;;;;7341563;32;20507;-55
2023/10/30 09:33:31;;;;;;;2.65;1.10;;;13.80;99.90;;;;;;7338667;32;20657;-56
2023/10/30 09:37:33;;;;;;;4.45;1.17;;;13.80;99.90;;;;;;7340010;32;20540;-57
2023/10/30 09:41:45;;;;;;;3.55;1.20;;;13.80;99.90;;;;;;7337017;32;20574;-57
2023/10/30 09:45:50;;;;;;;4.43;1.42;;;13.80;99.90;;;;;;7349438;32;20559;-57
2023/10/30 09:49:53;;;;;;;7.12;1.20;;;14.00;99.90;;;;;;7351367;32;20111;-57
2023/10/30 09:53:55;;;;;;;3.50;0.98;;;14.10;99.90;;;;;;7346579;32;20104;-56
2023/10/30 09:57:58;;;;;;;4.70;1.02;;;14.20;99.90;;;;;;7329167;32;20111;-56
2023/10/30 10:02:00;;;;;;;5.62;1.10;;;14.30;99.90;;;;;;7344543;32;20111;-56
2023/10/30 10:06:02;;;;;;;3.42;1.20;;;14.50;99.90;;;;;;7338725;32;20668;-57
2023/10/30 10:10:08;;;;;;;3.33;1.08;;;14.60;99.90;;;;;;7345940;32;20159;-57
2023/10/30 10:14:11;;;;;;;4.10;1.07;;;14.60;99.90;;;;;;7344731;32;20107;-57
2023/10/30 10:18:23;;;;;;;2.78;0.90;;;14.70;99.90;;;;;;7348685;32;20129;-59
2023/10/30 10:22:32;;;;;;;2.53;0.70;;;14.90;99.90;;;;;;7341761;32;20221;-58
2023/10/30 10:26:35;;;;;;;4.15;1.00;;;14.80;99.90;;;;;;7356238;32;20572;-57
2023/10/30 10:30:38;;;;;;;4.35;0.93;;;14.70;99.90;;;;;;7349589;32;20253;-57
2023/10/30 10:34:40;;;;;;;2.62;0.90;;;14.70;99.90;;;;;;7350866;32;20087;-57
2023/10/30 10:38:59;;;;;;;5.43;0.88;;;14.80;99.90;;;;;;7353343;32;20221;-57
2023/10/30 10:43:02;;;;;;;3.58;0.93;;;15.00;99.90;;;;;;7344527;32;20095;-59
2023/10/30 10:47:05;;;;;;;3.10;0.90;;;15.00;99.90;;;;;;7352743;32;20123;-59
2023/10/30 10:51:07;;;;;;;4.90;1.15;;;15.20;99.90;;;;;;7350430;32;20111;-59
2023/10/30 10:55:10;;;;;;;3.78;1.15;;;15.20;99.90;;;;;;7324065;32;20111;-58
2023/10/30 10:59:15;;;;;;;3.80;0.80;;;15.30;99.90;;;;;;7351438;32;20347;-59
2023/10/30 11:03:19;;;;;;;4.40;0.90;;;15.40;99.90;;;;;;7358614;32;20103;-59
2023/10/30 11:08:02;;;;;;;5.25;1.00;;;15.50;99.90;;;;;;7349270;32;20104;-57
2023/10/30 11:12:30;;;;;;;3.05;0.90;;;15.40;99.90;;;;;;7355886;32;20170;-57
2023/10/30 11:16:43;;;;;;;4.25;0.90;;;15.50;99.90;;;;;;7341960;32;20842;-59
2023/10/30 11:20:46;;;;;;;6.07;1.00;;;15.40;99.90;;;;;;7351111;32;20107;-59
2023/10/30 11:24:48;;;;;;;2.37;1.00;;;15.50;99.90;;;;;;7350245;32;20496;-59
2023/10/30 11:28:50;;;;;;;5.40;0.95;;;15.50;99.90;;;;;;7352493;32;20157;-58
2023/10/30 11:32:52;;;;;;;6.03;0.90;;;15.60;99.90;;;;;;7353415;32;20119;-58
2023/10/30 11:37:02;;;;;;;3.85;1.42;;;15.40;99.90;;;;;;7348793;32;20581;-57
2023/10/30 11:41:06;;;;;;;1.50;0.90;;;15.30;99.90;;;;;;7355507;32;20112;-57
2023/10/30 11:45:22;;;;;;;2.85;0.90;;;15.30;99.90;;;;;;7354211;32;20111;-56
2023/10/30 11:49:32;;;;;;;2.85;0.90;;;15.00;99.90;;;;;;7353887;32;20226;-58
2023/10/30 11:53:34;;;;;;;3.22;1.08;;;14.90;99.90;;;;;;7344582;32;20422;-56
2023/10/30 11:57:37;;;;;;;1.40;0.75;;;14.80;99.90;;;;;;7343132;32;20272;-57
2023/10/30 12:01:39;;;;;;;1.73;0.90;;;14.90;99.90;;;;;;7338165;32;20112;-57
2023/10/30 12:05:41;;;;;;;4.43;0.90;;;15.00;99.90;;;;;;7333031;32;20125;-57
2023/10/30 12:09:54;;;;;;;1.83;1.23;;;15.10;99.90;;;;;;7347350;32;20236;-57
2023/10/30 12:13:56;;;;;;;2.83;0.80;;;15.10;99.90;;;;;;7342114;32;20669;-57
2023/10/30 12:17:58;;;;;;;1.48;0.88;;;15.10;99.90;;;;;;7332996;32;20107;-58
2023/10/30 12:22:00;;;;;;;3.03;1.00;;;15.20;99.90;;;;;;7351053;32;20163;-57
2023/10/30 12:26:05;;;;;;;1.35;0.70;;;15.10;99.90;;;;;;7341592;32;20143;-57
2023/10/30 12:30:17;;;;;;;1.00;0.68;;;14.90;99.90;;;;;;7348877;32;20229;-57
2023/10/30 12:34:23;;;;;;;2.12;0.98;;;14.80;99.90;;;;;;7340014;32;20142;-58
2023/10/30 12:38:25;;;;;;;1.45;0.60;;;14.80;99.90;;;;;;7347210;32;20747;-56
2023/10/30 12:42:27;;;;;;;2.95;0.85;;;14.80;99.90;;;;;;7341487;32;20123;-57
2023/10/30 12:46:29;;;;;;;1.45;0.60;;;14.70;99.90;;;;;;7349457;32;20210;-57
2023/10/30 12:50:31;;;;;;;1.90;0.70;;;14.80;99.90;;;;;;7341826;32;20173;-58
2023/10/30 12:54:32;;;;;;;0.93;0.50;;;14.90;99.90;;;;;;7337859;32;20255;-56
2023/10/30 12:58:34;;;;;;;1.52;0.37;;;14.80;99.90;;;;;;7352341;32;20137;-58
2023/10/30 13:02:36;;;;;;;2.00;0.60;;;14.90;99.90;;;;;;7342627;32;20119;-57
2023/10/30 13:06:38;;;;;;;0.60;0.30;;;15.00;99.90;;;;;;7342796;32;20406;-57
2023/10/30 13:10:40;;;;;;;0.62;0.40;;;14.90;99.90;;;;;;7341296;32;20725;-57
2023/10/30 13:14:42;;;;;;;2.35;0.40;;;15.00;99.90;;;;;;7338670;32;20191;-57
2023/10/30 13:18:43;;;;;;;2.92;0.60;;;14.90;99.90;;;;;;7347810;32;20116;-57
2023/10/30 13:22:45;;;;;;;5.28;0.37;;;14.90;99.90;;;;;;7344856;32;20134;-57
2023/10/30 13:26:47;;;;;;;1.90;0.35;;;15.00;99.90;;;;;;7343805;32;20205;-56
2023/10/30 13:30:49;;;;;;;1.05;0.50;;;15.00;99.90;;;;;;7346900;32;20195;-57
2023/10/30 13:34:51;;;;;;;2.03;0.30;;;14.80;99.90;;;;;;7350890;32;20151;-58
2023/10/30 13:38:52;;;;;;;0.68;0.20;;;14.80;99.90;;;;;;7341933;32;20209;-56
2023/10/30 13:42:59;;;;;;;0.43;0.30;;;14.80;99.90;;;;;;7345610;32;20205;-56
2023/10/30 13:47:01;;;;;;;;;;;14.80;99.90;;;;;;7344291;32;20605;-57
2023/10/30 13:51:04;;;;;;;1.12;0.32;;;14.70;99.90;;;;;;7333702;32;20062;-57
2023/10/30 13:55:06;;;;;;;0.77;0.40;;;14.70;99.90;;;;;;7340386;32;20138;-57
2023/10/30 13:59:08;;;;;;;0.55;0.17;;;14.80;99.90;;;;;;7343906;32;20298;-56
2023/10/30 14:03:10;;;;;;;6.93;1.52;;;14.80;99.90;;;;;;7345470;32;20541;-57
2023/10/30 14:07:12;;;;;;;1.98;0.60;;;14.90;99.90;;;;;;7350438;32;20123;-57
2023/10/30 14:11:14;;;;;;;0.37;0.20;;;15.00;99.90;;;;;;7349911;32;20240;-56
2023/10/30 14:15:16;;;;;;;0.82;0.25;;;14.80;99.90;;;;;;7341016;32;20111;-56
2023/10/30 14:19:18;;;;;;;0.55;0.20;;;14.70;99.90;;;;;;7348874;32;20133;-57
2023/10/30 14:23:20;;;;;;;3.50;0.20;;;14.60;99.90;;;;;;7349569;32;20131;-57
2023/10/30 14:27:23;;;;;;;0.62;0.30;;;14.50;99.90;;;;;;7347862;32;20129;-56
2023/10/30 14:31:25;;;;;;;1.77;0.30;;;14.40;99.90;;;;;;7349225;32;20125;-56
2023/10/30 14:35:26;;;;;;;0.93;0.20;;;14.20;99.90;;;;;;7344532;32;20235;-58
2023/10/30 14:39:28;;;;;;;2.72;0.40;;;14.10;99.90;;;;;;7344389;32;20157;-57
2023/10/30 14:43:30;;;;;;;2.62;0.30;;;14.10;99.90;;;;;;7346481;32;20138;-64
2023/10/30 14:47:33;;;;;;;3.05;0.37;;;13.90;99.90;;;;;;7344228;32;20279;-64
2023/10/30 14:51:35;;;;;;;2.17;0.30;;;13.90;99.90;;;;;;7342183;32;20146;-56
2023/10/30 14:55:38;;;;;;;0.35;0.20;;;13.90;99.90;;;;;;7336565;32;20162;-55
2023/10/30 14:59:40;;;;;;;0.70;0.28;;;13.80;99.90;;;;;;7339451;32;20127;-56
2023/10/30 15:03:41;;;;;;;0.77;0.30;;;13.80;99.90;;;;;;7342224;32;20111;-56
2023/10/30 15:07:43;;;;;;;1.20;0.60;;;13.80;99.90;;;;;;7339764;32;20198;-57
2023/10/30 15:11:45;;;;;;;0.77;0.30;;;13.70;99.90;;;;;;7340777;32;20122;-58
2023/10/30 15:15:47;;;;;;;1.92;0.40;;;13.70;99.90;;;;;;7347991;32;20529;-56
2023/10/30 15:19:49;;;;;;;0.43;0.28;;;13.70;99.90;;;;;;7348509;32;20129;-59
2023/10/30 15:23:51;;;;;;;1.37;0.60;;;13.70;99.90;;;;;;7342886;32;20147;-57
2023/10/30 15:27:53;;;;;;;1.45;0.40;;;13.70;99.90;;;;;;7358415;32;20736;-59
2023/10/30 15:31:55;;;;;;;0.68;0.32;;;13.70;99.90;;;;;;7336907;32;20393;-56
2023/10/30 15:36:00;;;;;;;1.27;0.40;;;13.70;99.90;;;;;;7335457;32;20119;-56
2023/10/30 15:40:03;;;;;;;1.58;0.28;;;13.60;99.90;;;;;;7349633;32;20213;-56
2023/10/30 15:44:05;;;;;;;1.95;0.47;;;13.60;99.90;;;;;;7351046;32;20103;-58
2023/10/30 15:48:07;;;;;;;2.25;0.35;;;13.60;99.90;;;;;;7351462;32;20540;-57
2023/10/30 15:52:09;;;;;;;1.10;0.40;;;13.60;99.90;;;;;;7345865;32;20160;-56
2023/10/30 15:56:16;;;;;;;2.55;0.70;;;13.60;99.90;;;;;;7341649;32;20134;-56
2023/10/30 16:00:23;;;;;;;;;;;13.50;99.90;;;;;;7341466;32;20206;-57
2023/10/30 16:04:25;;;;;;;1.17;0.65;;;13.40;99.90;;;;;;7354242;32;20023;-56
2023/10/30 16:08:49;;;;;;;1.20;0.77;;;13.30;99.90;;;;;;7351648;32;20107;-57
2023/10/30 16:12:51;;;;;;;0.62;0.40;;;13.30;99.90;;;;;;7350887;32;20234;-57
2023/10/30 16:16:53;;;;;;;1.77;0.60;;;13.20;99.90;;;;;;7350936;32;20295;-56
2023/10/30 16:20:58;;;;;;;2.83;0.60;;;13.10;99.90;;;;;;7353404;32;20168;-56
2023/10/30 16:25:17;;;;;;;1.98;0.80;;;13.00;99.90;;;;;;7347061;32;20531;-55
2023/10/30 16:29:19;;;;;;;1.73;0.50;;;13.00;99.90;;;;;;7350531;32;20214;-56
2023/10/30 16:33:21;;;;;;;1.92;0.50;;;12.90;99.90;;;;;;7347699;32;20123;-56
2023/10/30 16:37:23;;;;;;;3.85;0.85;;;12.90;99.90;;;;;;7344724;32;20548;-54
2023/10/30 16:41:25;;;;;;;4.62;0.77;;;12.70;99.90;;;;;;7346332;32;20121;-55
2023/10/30 16:45:27;;;;;;;4.78;0.55;;;12.70;99.90;;;;;;7341501;32;20130;-56
2023/10/30 16:49:28;;;;;;;3.83;0.68;;;12.70;99.90;;;;;;7345920;32;20108;-54
2023/10/30 16:53:30;;;;;;;1.52;0.70;;;12.60;99.90;;;;;;7348585;32;20138;-55
2023/10/30 16:57:32;;;;;;;0.80;0.50;;;12.60;99.90;;;;;;7342574;32;20131;-55
2023/10/30 17:01:34;;;;;;;3.85;1.17;;;12.50;99.90;;;;;;7349569;32;20863;-56
2023/10/30 17:05:36;;;;;;;3.12;0.77;;;12.50;99.90;;;;;;7348113;32;20148;-55
2023/10/30 17:09:38;;;;;;;3.85;0.98;;;12.60;99.90;;;;;;7344745;32;20111;-55
2023/10/30 17:13:39;;;;;;;3.97;0.90;;;12.50;99.90;;;;;;7345154;32;20278;-56
2023/10/30 17:17:41;;;;;;;3.58;0.82;;;12.50;99.90;;;;;;7347073;32;20111;-56
2023/10/30 17:21:43;;;;;;;3.85;1.00;;;12.50;99.90;;;;;;7341650;32;20111;-55
2023/10/30 17:25:46;;;;;;;3.65;0.98;;;12.60;99.90;;;;;;7352313;32;20123;-58
2023/10/30 17:29:47;;;;;;;1.17;0.80;;;12.50;99.90;;;;;;7345348;32;20111;-57
2023/10/30 17:33:49;;;;;;;2.72;1.10;;;12.50;99.90;;;;;;7349169;32;20167;-56
2023/10/30 17:37:51;;;;;;;2.28;0.90;;;12.50;99.90;;;;;;7347941;32;20443;-55
2023/10/30 17:41:53;;;;;;;3.67;1.10;;;12.40;99.90;;;;;;7338590;32;20130;-55
2023/10/30 17:45:55;;;;;;;4.85;1.05;;;12.50;99.90;;;;;;7352201;32;20650;-56
2023/10/30 17:49:59;;;;;;;1.30;1.00;;;12.40;99.90;;;;;;7343386;32;20129;-55
2023/10/30 17:54:01;;;;;;;3.92;1.02;;;12.50;99.90;;;;;;7340805;32;20107;-57
2023/10/30 17:58:03;;;;;;;2.87;1.35;;;12.50;99.90;;;;;;7337525;32;20130;-57
2023/10/30 18:02:05;;;;;;;2.53;1.20;;;12.50;99.90;;;;;;7348613;32;20201;-56
2023/10/30 18:06:08;;;;;;;3.12;1.87;;;12.50;99.90;;;;;;7352340;32;20171;-56
2023/10/30 18:10:10;;;;;;;6.80;1.60;;;12.40;99.90;;;;;;7347962;32;20185;-57
2023/10/30 18:14:12;;;;;;;4.43;1.87;;;12.40;99.90;;;;;;7342850;32;20161;-56
2023/10/30 18:18:13;;;;;;;2.53;1.73;;;12.40;99.90;;;;;;7346745;32;20265;-55
2023/10/30 18:22:15;;;;;;;3.05;1.87;;;12.40;99.90;;;;;;7350555;32;20687;-55
2023/10/30 18:26:22;;;;;;;5.47;2.30;;;12.40;99.90;;;;;;7351164;32;20115;-55
2023/10/30 18:30:24;;;;;;;2.40;1.42;;;12.40;99.90;;;;;;7343978;32;20233;-55
2023/10/30 18:34:27;;;;;;;3.58;1.75;;;12.40;99.90;;;;;;7331717;32;20269;-55
2023/10/30 18:38:28;;;;;;;2.35;1.70;;;12.30;99.90;;;;;;7349383;32;20103;-56
2023/10/30 18:42:30;;;;;;;3.25;1.87;;;12.40;99.90;;;;;;7347176;32;20111;-58
2023/10/30 18:46:34;;;;;;;3.37;1.52;;;12.40;99.90;;;;;;7354646;32;20163;-56
2023/10/30 18:50:35;;;;;;;3.33;1.45;;;12.40;99.90;;;;;;7355565;32;20110;-55
2023/10/30 18:54:37;;;;;;;3.03;1.75;;;12.40;99.90;;;;;;7345331;32;20725;-55
2023/10/30 18:58:40;;;;;;;3.35;1.98;;;12.50;99.90;;;;;;7361318;32;20242;-56
2023/10/30 19:02:42;;;;;;;2.40;1.90;;;12.50;99.90;;;;;;7352703;32;20100;-57
2023/10/30 19:06:44;;;;;;;3.37;2.45;;;12.40;99.90;;;;;;7354800;32;20125;-57
2023/10/30 19:10:46;;;;;;;5.47;2.33;;;12.40;99.90;;;;;;7351218;32;20474;-56
2023/10/30 19:14:50;;;;;;;2.97;2.30;;;12.50;99.90;;;;;;7343026;32;20119;-56
2023/10/30 19:18:52;;;;;;;6.32;2.67;;;12.50;99.90;;;;;;7343544;32;20245;-56
2023/10/30 19:22:54;;;;;;;3.50;2.40;;;12.50;99.90;;;;;;7341014;32;20127;-55
2023/10/30 19:26:56;;;;;;;3.70;2.25;;;12.40;99.90;;;;;;7348821;32;20520;-56
2023/10/30 19:31:02;;;;;;;4.93;2.00;;;12.40;99.90;;;;;;7343203;32;20149;-55
2023/10/30 19:35:04;;;;;;;5.87;2.45;;;12.50;99.90;;;;;;7352609;32;20249;-56
2023/10/30 19:39:07;;;;;;;4.18;3.78;;;12.40;99.90;;;;;;7347388;32;20102;-55
2023/10/30 19:43:09;;;;;;;5.20;4.68;;;12.50;99.90;;;;;;7351055;32;20529;-55
2023/10/30 19:47:11;;;;;;;6.12;4.87;;;12.60;99.90;;;;;;7348232;32;20115;-55
2023/10/30 19:51:13;;;;;;;5.97;5.37;;;12.50;99.90;;;;;;7352394;32;20123;-57
2023/10/30 19:55:17;;;;;;;8.60;5.95;;;12.50;99.90;;;;;;7356303;32;20106;-57
2023/10/30 19:59:18;;;;;;;7.57;5.40;;;12.40;99.90;;;;;;7354108;32;20505;-58
2023/10/30 20:03:21;;;;;;;6.47;5.87;;;12.50;99.90;;;;;;7357107;32;20134;-57
2023/10/30 20:07:23;;;;;;;7.68;6.90;;;12.50;99.90;;;;;;7357304;32;20107;-56
2023/10/30 20:11:25;;;;;;;10.32;7.80;;;12.40;99.90;;;;;;7352042;32;20198;-56
2023/10/30 20:15:26;;;;;;;8.73;7.82;;;12.40;99.90;;;;;;7348105;32;20160;-56
2023/10/30 20:19:28;;;;;;;10.27;8.43;;;12.50;99.90;;;;;;7350258;32;20797;-55
2023/10/30 20:23:30;;;;;;;9.80;8.75;;;12.40;99.90;;;;;;7352639;32;20173;-57
2023/10/30 20:27:32;;;;;;;10.18;8.90;;;12.40;99.90;;;;;;7349835;32;20310;-57
2023/10/30 20:31:34;;;;;;;11.93;10.63;;;12.40;99.90;;;;;;7350974;32;20328;-53
2023/10/30 20:35:35;;;;;;;13.10;11.75;;;12.50;99.90;;;;;;7353809;32;20187;-56
2023/10/30 20:39:38;;;;;;;13.90;11.45;;;12.50;99.90;;;;;;7344941;32;20111;-56
2023/10/30 20:43:39;;;;;;;15.77;11.60;;;12.50;99.90;;;;;;7349066;32;20238;-56
2023/10/30 20:47:41;;;;;;;13.55;11.40;;;12.50;99.90;;;;;;7349390;32;20107;-57
2023/10/30 20:51:43;;;;;;;12.60;10.82;;;12.60;99.90;;;;;;7355010;32;20125;-55
2023/10/30 20:55:45;;;;;;;14.75;12.55;;;12.60;99.90;;;;;;7356989;32;20735;-55
2023/10/30 20:59:47;;;;;;;14.25;12.20;;;12.60;99.90;;;;;;7346972;32;20107;-56
2023/10/30 21:03:51;;;;;;;13.57;11.55;;;12.70;99.90;;;;;;7343181;32;20172;-56
2023/10/30 21:07:52;;;;;;;12.48;10.40;;;12.60;99.90;;;;;;7352629;32;20126;-57